sim
Sign-in with your pilot id or email,
or register
Callsign
Passwort

Schedule Details

Flight Number: RYR4283 (1)
Departure: Bratislava M. R. Stefanik Airport (LZIB) at 12:35
Arrival: Dublin Airport (EIDW) at 15:35
Route: Ryanair Passenger Schedule. Enter filed route here before submitting Pirep.

Weather Information
Getting current METAR information for LZIB 310800Z 31008KT 270V340 9999 -RA FEW045 BKN051 BKN060 10/08 Q1016 TEMPO RA
Getting current METAR information for EIDW 310800Z 12010KT 090V150 CAVOK 17/07 Q1022 NOSIG

Schedule Frequency

Route Map